sensor_id;sensor_type;location;lat;lon;timestamp;P1;durP1;ratioP1;P2;durP2;ratioP2
53299;SDS011;39187;48.476;8.310;2022-11-15T00:00:33;2.70;;;2.37;;
53299;SDS011;39187;48.476;8.310;2022-11-15T00:02:59;2.40;;;2.30;;
53299;SDS011;39187;48.476;8.310;2022-11-15T00:05:25;3.57;;;2.10;;
53299;SDS011;39187;48.476;8.310;2022-11-15T00:07:51;2.63;;;2.43;;
53299;SDS011;39187;48.476;8.310;2022-11-15T00:10:16;3.20;;;2.77;;
53299;SDS011;39187;48.476;8.310;2022-11-15T00:12:42;3.13;;;2.60;;
53299;SDS011;39187;48.476;8.310;2022-11-15T00:15:08;2.03;;;1.70;;
53299;SDS011;39187;48.476;8.310;2022-11-15T00:17:33;2.57;;;2.30;;
53299;SDS011;39187;48.476;8.310;2022-11-15T00:19:59;2.30;;;2.20;;
53299;SDS011;39187;48.476;8.310;2022-11-15T00:22:25;2.90;;;2.43;;
53299;SDS011;39187;48.476;8.310;2022-11-15T00:24:57;2.83;;;1.97;;
53299;SDS011;39187;48.476;8.310;2022-11-15T00:27:22;3.07;;;2.20;;
53299;SDS011;39187;48.476;8.310;2022-11-15T00:29:48;2.23;;;2.13;;
53299;SDS011;39187;48.476;8.310;2022-11-15T00:32:13;2.53;;;2.43;;
53299;SDS011;39187;48.476;8.310;2022-11-15T00:34:39;2.47;;;2.37;;
53299;SDS011;39187;48.476;8.310;2022-11-15T00:37:05;4.63;;;2.20;;
53299;SDS011;39187;48.476;8.310;2022-11-15T00:39:31;2.50;;;2.40;;
53299;SDS011;39187;48.476;8.310;2022-11-15T00:41:56;2.33;;;2.23;;
53299;SDS011;39187;48.476;8.310;2022-11-15T00:44:22;2.43;;;2.23;;
53299;SDS011;39187;48.476;8.310;2022-11-15T00:46:48;2.40;;;1.97;;
53299;SDS011;39187;48.476;8.310;2022-11-15T00:49:13;6.83;;;2.67;;
53299;SDS011;39187;48.476;8.310;2022-11-15T00:51:39;2.47;;;2.27;;
53299;SDS011;39187;48.476;8.310;2022-11-15T00:54:04;2.60;;;2.50;;
53299;SDS011;39187;48.476;8.310;2022-11-15T00:56:30;3.97;;;2.13;;
53299;SDS011;39187;48.476;8.310;2022-11-15T00:58:55;2.30;;;2.20;;
53299;SDS011;39187;48.476;8.310;2022-11-15T01:01:21;2.23;;;2.13;;
53299;SDS011;39187;48.476;8.310;2022-11-15T01:03:47;3.10;;;2.67;;
53299;SDS011;39187;48.476;8.310;2022-11-15T01:06:12;1.97;;;1.80;;
53299;SDS011;39187;48.476;8.310;2022-11-15T01:08:38;2.23;;;2.13;;
53299;SDS011;39187;48.476;8.310;2022-11-15T01:11:06;3.67;;;1.93;;
53299;SDS011;39187;48.476;8.310;2022-11-15T01:13:34;2.50;;;2.30;;
53299;SDS011;39187;48.476;8.310;2022-11-15T01:16:10;3.77;;;1.83;;
53299;SDS011;39187;48.476;8.310;2022-11-15T01:18:38;3.80;;;2.80;;
53299;SDS011;39187;48.476;8.310;2022-11-15T01:21:05;2.93;;;2.10;;
53299;SDS011;39187;48.476;8.310;2022-11-15T01:23:35;2.70;;;1.97;;
53299;SDS011;39187;48.476;8.310;2022-11-15T01:26:01;3.90;;;2.40;;
53299;SDS011;39187;48.476;8.310;2022-11-15T01:28:30;2.33;;;2.10;;
53299;SDS011;39187;48.476;8.310;2022-11-15T01:31:00;3.03;;;2.70;;
53299;SDS011;39187;48.476;8.310;2022-11-15T01:33:28;2.00;;;1.90;;
53299;SDS011;39187;48.476;8.310;2022-11-15T01:35:54;2.60;;;2.37;;
53299;SDS011;39187;48.476;8.310;2022-11-15T01:38:20;2.60;;;2.40;;
53299;SDS011;39187;48.476;8.310;2022-11-15T01:40:46;2.30;;;2.20;;
53299;SDS011;39187;48.476;8.310;2022-11-15T01:48:53;3.13;;;2.37;;
53299;SDS011;39187;48.476;8.310;2022-11-15T01:51:21;2.33;;;2.23;;
53299;SDS011;39187;48.476;8.310;2022-11-15T01:53:52;1.90;;;1.80;;
53299;SDS011;39187;48.476;8.310;2022-11-15T01:56:21;3.43;;;2.17;;
53299;SDS011;39187;48.476;8.310;2022-11-15T01:58:50;2.20;;;2.10;;
53299;SDS011;39187;48.476;8.310;2022-11-15T02:01:18;1.83;;;1.73;;
53299;SDS011;39187;48.476;8.310;2022-11-15T02:03:58;4.20;;;2.83;;
53299;SDS011;39187;48.476;8.310;2022-11-15T02:06:26;2.40;;;2.30;;
53299;SDS011;39187;48.476;8.310;2022-11-15T02:08:52;2.50;;;2.40;;
53299;SDS011;39187;48.476;8.310;2022-11-15T02:11:19;2.87;;;2.77;;
53299;SDS011;39187;48.476;8.310;2022-11-15T02:13:44;3.30;;;3.00;;
53299;SDS011;39187;48.476;8.310;2022-11-15T02:19:36;2.30;;;2.10;;
53299;SDS011;39187;48.476;8.310;2022-11-15T02:22:01;2.30;;;2.20;;
53299;SDS011;39187;48.476;8.310;2022-11-15T02:24:48;2.47;;;2.27;;
53299;SDS011;39187;48.476;8.310;2022-11-15T02:30:17;2.83;;;2.50;;
53299;SDS011;39187;48.476;8.310;2022-11-15T02:32:52;2.80;;;2.60;;
53299;SDS011;39187;48.476;8.310;2022-11-15T02:37:58;4.97;;;2.63;;
53299;SDS011;39187;48.476;8.310;2022-11-15T02:48:47;2.60;;;2.50;;
53299;SDS011;39187;48.476;8.310;2022-11-15T02:51:13;4.37;;;2.70;;
53299;SDS011;39187;48.476;8.310;2022-11-15T02:53:41;3.07;;;2.77;;
53299;SDS011;39187;48.476;8.310;2022-11-15T02:56:07;2.87;;;2.77;;
53299;SDS011;39187;48.476;8.310;2022-11-15T02:58:51;3.73;;;2.60;;
53299;SDS011;39187;48.476;8.310;2022-11-15T03:07:13;2.20;;;2.10;;
53299;SDS011;39187;48.476;8.310;2022-11-15T03:15:13;2.37;;;2.27;;
53299;SDS011;39187;48.476;8.310;2022-11-15T03:18:00;2.00;;;1.90;;
53299;SDS011;39187;48.476;8.310;2022-11-15T03:20:30;2.43;;;2.33;;
53299;SDS011;39187;48.476;8.310;2022-11-15T03:23:00;4.20;;;2.70;;
53299;SDS011;39187;48.476;8.310;2022-11-15T03:25:32;3.30;;;3.10;;
53299;SDS011;39187;48.476;8.310;2022-11-15T03:28:01;3.13;;;2.67;;
53299;SDS011;39187;48.476;8.310;2022-11-15T03:30:31;2.47;;;2.37;;
53299;SDS011;39187;48.476;8.310;2022-11-15T03:33:00;3.30;;;2.80;;
53299;SDS011;39187;48.476;8.310;2022-11-15T03:35:30;2.20;;;2.00;;
53299;SDS011;39187;48.476;8.310;2022-11-15T03:38:06;2.03;;;1.93;;
53299;SDS011;39187;48.476;8.310;2022-11-15T03:40:40;2.00;;;1.90;;
53299;SDS011;39187;48.476;8.310;2022-11-15T03:46:40;1.63;;;1.53;;
53299;SDS011;39187;48.476;8.310;2022-11-15T03:49:46;2.73;;;2.00;;
53299;SDS011;39187;48.476;8.310;2022-11-15T03:52:09;1.77;;;1.67;;
53299;SDS011;39187;48.476;8.310;2022-11-15T03:54:36;3.60;;;1.63;;
53299;SDS011;39187;48.476;8.310;2022-11-15T03:57:02;1.73;;;1.63;;
53299;SDS011;39187;48.476;8.310;2022-11-15T03:59:28;1.70;;;1.60;;
53299;SDS011;39187;48.476;8.310;2022-11-15T04:01:53;3.00;;;1.87;;
53299;SDS011;39187;48.476;8.310;2022-11-15T04:04:19;1.50;;;1.40;;
53299;SDS011;39187;48.476;8.310;2022-11-15T04:06:45;1.50;;;1.40;;
53299;SDS011;39187;48.476;8.310;2022-11-15T04:09:10;2.40;;;2.10;;
53299;SDS011;39187;48.476;8.310;2022-11-15T04:11:36;1.83;;;1.73;;
53299;SDS011;39187;48.476;8.310;2022-11-15T04:14:02;1.50;;;1.40;;
53299;SDS011;39187;48.476;8.310;2022-11-15T04:16:27;1.70;;;1.60;;
53299;SDS011;39187;48.476;8.310;2022-11-15T04:18:53;1.50;;;1.40;;
53299;SDS011;39187;48.476;8.310;2022-11-15T04:21:38;1.57;;;1.20;;
53299;SDS011;39187;48.476;8.310;2022-11-15T04:24:22;1.30;;;1.30;;
53299;SDS011;39187;48.476;8.310;2022-11-15T04:26:47;1.43;;;1.13;;
53299;SDS011;39187;48.476;8.310;2022-11-15T04:29:13;1.70;;;1.60;;
53299;SDS011;39187;48.476;8.310;2022-11-15T04:31:57;1.33;;;1.23;;
53299;SDS011;39187;48.476;8.310;2022-11-15T04:34:23;1.63;;;1.53;;
53299;SDS011;39187;48.476;8.310;2022-11-15T04:36:48;1.53;;;1.43;;
53299;SDS011;39187;48.476;8.310;2022-11-15T04:39:32;1.60;;;1.50;;
53299;SDS011;39187;48.476;8.310;2022-11-15T04:41:58;4.17;;;1.87;;
53299;SDS011;39187;48.476;8.310;2022-11-15T04:44:23;1.37;;;1.30;;
53299;SDS011;39187;48.476;8.310;2022-11-15T04:46:49;1.00;;;1.00;;
53299;SDS011;39187;48.476;8.310;2022-11-15T04:49:14;2.30;;;1.27;;
53299;SDS011;39187;48.476;8.310;2022-11-15T04:51:40;2.20;;;1.40;;
53299;SDS011;39187;48.476;8.310;2022-11-15T04:54:05;1.30;;;1.20;;
53299;SDS011;39187;48.476;8.310;2022-11-15T04:56:31;1.10;;;1.10;;
53299;SDS011;39187;48.476;8.310;2022-11-15T04:58:57;1.57;;;1.10;;
53299;SDS011;39187;48.476;8.310;2022-11-15T05:01:22;0.90;;;0.90;;
53299;SDS011;39187;48.476;8.310;2022-11-15T05:03:48;1.40;;;1.30;;
53299;SDS011;39187;48.476;8.310;2022-11-15T05:06:32;1.13;;;1.13;;
53299;SDS011;39187;48.476;8.310;2022-11-15T05:08:57;2.10;;;0.93;;
53299;SDS011;39187;48.476;8.310;2022-11-15T05:11:23;4.30;;;1.20;;
53299;SDS011;39187;48.476;8.310;2022-11-15T05:13:49;1.83;;;1.00;;
53299;SDS011;39187;48.476;8.310;2022-11-15T05:16:15;1.07;;;1.07;;
53299;SDS011;39187;48.476;8.310;2022-11-15T05:18:41;0.93;;;0.93;;
53299;SDS011;39187;48.476;8.310;2022-11-15T05:21:09;1.53;;;1.43;;
53299;SDS011;39187;48.476;8.310;2022-11-15T05:23:37;1.40;;;1.30;;
53299;SDS011;39187;48.476;8.310;2022-11-15T05:26:04;1.57;;;1.00;;
53299;SDS011;39187;48.476;8.310;2022-11-15T05:28:30;1.30;;;1.20;;
53299;SDS011;39187;48.476;8.310;2022-11-15T05:31:03;1.10;;;1.10;;
53299;SDS011;39187;48.476;8.310;2022-11-15T05:33:30;1.20;;;1.00;;
53299;SDS011;39187;48.476;8.310;2022-11-15T05:36:00;1.10;;;1.00;;
53299;SDS011;39187;48.476;8.310;2022-11-15T05:38:31;0.73;;;0.73;;
53299;SDS011;39187;48.476;8.310;2022-11-15T05:40:59;2.80;;;1.20;;
53299;SDS011;39187;48.476;8.310;2022-11-15T05:43:25;0.87;;;0.87;;
53299;SDS011;39187;48.476;8.310;2022-11-15T05:45:51;1.17;;;1.10;;
53299;SDS011;39187;48.476;8.310;2022-11-15T05:48:17;0.77;;;0.77;;
53299;SDS011;39187;48.476;8.310;2022-11-15T05:50:44;0.90;;;0.90;;
53299;SDS011;39187;48.476;8.310;2022-11-15T05:53:12;1.30;;;1.30;;
53299;SDS011;39187;48.476;8.310;2022-11-15T05:55:41;1.60;;;1.50;;
53299;SDS011;39187;48.476;8.310;2022-11-15T05:58:06;1.00;;;1.00;;
53299;SDS011;39187;48.476;8.310;2022-11-15T06:00:32;1.00;;;1.00;;
53299;SDS011;39187;48.476;8.310;2022-11-15T06:02:58;0.97;;;0.97;;
53299;SDS011;39187;48.476;8.310;2022-11-15T06:05:24;1.03;;;1.03;;
53299;SDS011;39187;48.476;8.310;2022-11-15T06:07:50;1.03;;;1.03;;
53299;SDS011;39187;48.476;8.310;2022-11-15T06:10:15;2.50;;;0.90;;
53299;SDS011;39187;48.476;8.310;2022-11-15T06:12:41;1.00;;;1.00;;
53299;SDS011;39187;48.476;8.310;2022-11-15T06:15:07;1.03;;;1.03;;
53299;SDS011;39187;48.476;8.310;2022-11-15T06:17:33;1.70;;;1.00;;
53299;SDS011;39187;48.476;8.310;2022-11-15T06:19:58;1.00;;;0.90;;
53299;SDS011;39187;48.476;8.310;2022-11-15T06:22:24;0.97;;;0.90;;
53299;SDS011;39187;48.476;8.310;2022-11-15T06:24:49;0.83;;;0.80;;
53299;SDS011;39187;48.476;8.310;2022-11-15T06:27:15;1.33;;;1.03;;
53299;SDS011;39187;48.476;8.310;2022-11-15T06:29:40;1.93;;;0.80;;
53299;SDS011;39187;48.476;8.310;2022-11-15T06:32:06;2.03;;;1.10;;
53299;SDS011;39187;48.476;8.310;2022-11-15T06:34:32;0.83;;;0.83;;
53299;SDS011;39187;48.476;8.310;2022-11-15T06:36:57;0.80;;;0.80;;
53299;SDS011;39187;48.476;8.310;2022-11-15T06:39:23;3.23;;;1.07;;
53299;SDS011;39187;48.476;8.310;2022-11-15T06:41:49;1.17;;;0.83;;
53299;SDS011;39187;48.476;8.310;2022-11-15T06:44:15;0.80;;;0.80;;
53299;SDS011;39187;48.476;8.310;2022-11-15T06:46:41;0.67;;;0.67;;
53299;SDS011;39187;48.476;8.310;2022-11-15T06:49:07;0.70;;;0.70;;
53299;SDS011;39187;48.476;8.310;2022-11-15T06:51:33;0.90;;;0.90;;
53299;SDS011;39187;48.476;8.310;2022-11-15T06:53:58;2.50;;;0.97;;
53299;SDS011;39187;48.476;8.310;2022-11-15T06:56:24;0.90;;;0.90;;
53299;SDS011;39187;48.476;8.310;2022-11-15T06:58:49;1.67;;;0.67;;
53299;SDS011;39187;48.476;8.310;2022-11-15T07:01:15;2.57;;;0.90;;
53299;SDS011;39187;48.476;8.310;2022-11-15T07:03:41;1.00;;;0.80;;
53299;SDS011;39187;48.476;8.310;2022-11-15T07:06:08;0.83;;;0.83;;
53299;SDS011;39187;48.476;8.310;2022-11-15T07:08:34;1.77;;;0.80;;
53299;SDS011;39187;48.476;8.310;2022-11-15T07:11:01;0.87;;;0.80;;
53299;SDS011;39187;48.476;8.310;2022-11-15T07:13:30;0.90;;;0.80;;
53299;SDS011;39187;48.476;8.310;2022-11-15T07:16:06;1.30;;;1.20;;
53299;SDS011;39187;48.476;8.310;2022-11-15T07:18:34;0.70;;;0.70;;
53299;SDS011;39187;48.476;8.310;2022-11-15T07:21:04;1.00;;;1.00;;
53299;SDS011;39187;48.476;8.310;2022-11-15T07:23:30;1.27;;;1.17;;
53299;SDS011;39187;48.476;8.310;2022-11-15T07:25:59;1.10;;;1.10;;
53299;SDS011;39187;48.476;8.310;2022-11-15T07:28:25;1.37;;;1.27;;
53299;SDS011;39187;48.476;8.310;2022-11-15T07:30:51;1.50;;;1.40;;
53299;SDS011;39187;48.476;8.310;2022-11-15T07:33:17;0.90;;;0.90;;
53299;SDS011;39187;48.476;8.310;2022-11-15T07:35:42;1.20;;;1.10;;
53299;SDS011;39187;48.476;8.310;2022-11-15T07:38:08;1.40;;;0.97;;
53299;SDS011;39187;48.476;8.310;2022-11-15T07:40:34;0.93;;;0.90;;
53299;SDS011;39187;48.476;8.310;2022-11-15T07:43:03;1.40;;;1.30;;
53299;SDS011;39187;48.476;8.310;2022-11-15T07:45:30;1.90;;;1.80;;
53299;SDS011;39187;48.476;8.310;2022-11-15T07:47:56;1.73;;;1.63;;
53299;SDS011;39187;48.476;8.310;2022-11-15T07:50:23;4.30;;;1.50;;
53299;SDS011;39187;48.476;8.310;2022-11-15T07:52:55;1.60;;;1.50;;
53299;SDS011;39187;48.476;8.310;2022-11-15T07:55:22;1.17;;;1.17;;
53299;SDS011;39187;48.476;8.310;2022-11-15T07:57:48;1.50;;;1.40;;
53299;SDS011;39187;48.476;8.310;2022-11-15T08:00:14;1.90;;;1.80;;
53299;SDS011;39187;48.476;8.310;2022-11-15T08:02:40;1.00;;;1.00;;
53299;SDS011;39187;48.476;8.310;2022-11-15T08:05:06;1.17;;;1.17;;
53299;SDS011;39187;48.476;8.310;2022-11-15T08:07:31;1.57;;;1.47;;
53299;SDS011;39187;48.476;8.310;2022-11-15T08:09:57;1.30;;;1.20;;
53299;SDS011;39187;48.476;8.310;2022-11-15T08:12:24;1.00;;;1.00;;
53299;SDS011;39187;48.476;8.310;2022-11-15T08:14:50;1.33;;;1.23;;
53299;SDS011;39187;48.476;8.310;2022-11-15T08:17:15;1.10;;;1.10;;
53299;SDS011;39187;48.476;8.310;2022-11-15T08:19:41;1.27;;;0.80;;
53299;SDS011;39187;48.476;8.310;2022-11-15T08:22:07;1.23;;;1.20;;
53299;SDS011;39187;48.476;8.310;2022-11-15T08:24:32;1.07;;;0.80;;
53299;SDS011;39187;48.476;8.310;2022-11-15T08:26:59;0.93;;;0.93;;
53299;SDS011;39187;48.476;8.310;2022-11-15T08:29:24;1.00;;;1.00;;
53299;SDS011;39187;48.476;8.310;2022-11-15T08:31:50;1.40;;;1.30;;
53299;SDS011;39187;48.476;8.310;2022-11-15T08:34:16;1.07;;;1.03;;
53299;SDS011;39187;48.476;8.310;2022-11-15T08:36:41;3.30;;;1.13;;
53299;SDS011;39187;48.476;8.310;2022-11-15T08:39:09;1.27;;;1.17;;
53299;SDS011;39187;48.476;8.310;2022-11-15T08:41:37;1.13;;;1.03;;
53299;SDS011;39187;48.476;8.310;2022-11-15T08:44:02;1.30;;;1.20;;
53299;SDS011;39187;48.476;8.310;2022-11-15T08:46:28;1.87;;;0.90;;
53299;SDS011;39187;48.476;8.310;2022-11-15T08:48:53;1.27;;;1.27;;
53299;SDS011;39187;48.476;8.310;2022-11-15T08:51:19;1.13;;;1.00;;
53299;SDS011;39187;48.476;8.310;2022-11-15T08:53:45;1.53;;;0.83;;
53299;SDS011;39187;48.476;8.310;2022-11-15T08:56:11;1.00;;;1.00;;
53299;SDS011;39187;48.476;8.310;2022-11-15T08:58:39;1.13;;;1.13;;
53299;SDS011;39187;48.476;8.310;2022-11-15T09:01:05;1.43;;;1.37;;
53299;SDS011;39187;48.476;8.310;2022-11-15T09:03:30;1.13;;;1.03;;
53299;SDS011;39187;48.476;8.310;2022-11-15T09:05:56;0.83;;;0.83;;
53299;SDS011;39187;48.476;8.310;2022-11-15T09:08:23;1.23;;;1.13;;
53299;SDS011;39187;48.476;8.310;2022-11-15T09:10:50;2.50;;;0.90;;
53299;SDS011;39187;48.476;8.310;2022-11-15T09:13:16;2.30;;;1.10;;
53299;SDS011;39187;48.476;8.310;2022-11-15T09:15:42;1.07;;;1.00;;
53299;SDS011;39187;48.476;8.310;2022-11-15T09:18:08;1.30;;;1.20;;
53299;SDS011;39187;48.476;8.310;2022-11-15T09:20:34;1.20;;;1.10;;
53299;SDS011;39187;48.476;8.310;2022-11-15T09:23:00;1.80;;;1.70;;
53299;SDS011;39187;48.476;8.310;2022-11-15T09:25:27;2.20;;;1.77;;
53299;SDS011;39187;48.476;8.310;2022-11-15T09:27:53;2.70;;;1.80;;
53299;SDS011;39187;48.476;8.310;2022-11-15T09:30:19;1.13;;;1.13;;
53299;SDS011;39187;48.476;8.310;2022-11-15T09:32:44;1.10;;;1.00;;
53299;SDS011;39187;48.476;8.310;2022-11-15T09:35:10;0.80;;;0.80;;
53299;SDS011;39187;48.476;8.310;2022-11-15T09:37:35;1.63;;;1.03;;
53299;SDS011;39187;48.476;8.310;2022-11-15T09:40:01;1.03;;;1.00;;
53299;SDS011;39187;48.476;8.310;2022-11-15T09:42:38;1.53;;;0.90;;
53299;SDS011;39187;48.476;8.310;2022-11-15T09:45:18;1.20;;;1.20;;
53299;SDS011;39187;48.476;8.310;2022-11-15T09:50:35;1.23;;;1.13;;
53299;SDS011;39187;48.476;8.310;2022-11-15T09:53:08;0.87;;;0.87;;
53299;SDS011;39187;48.476;8.310;2022-11-15T09:55:44;0.80;;;0.80;;
53299;SDS011;39187;48.476;8.310;2022-11-15T10:00:51;1.20;;;1.10;;
53299;SDS011;39187;48.476;8.310;2022-11-15T10:05:57;0.70;;;0.70;;
53299;SDS011;39187;48.476;8.310;2022-11-15T10:11:33;0.87;;;0.87;;
53299;SDS011;39187;48.476;8.310;2022-11-15T10:14:02;0.90;;;0.80;;
53299;SDS011;39187;48.476;8.310;2022-11-15T10:16:40;0.90;;;0.90;;
53299;SDS011;39187;48.476;8.310;2022-11-15T10:20:21;0.70;;;0.70;;
53299;SDS011;39187;48.476;8.310;2022-11-15T10:22:41;0.70;;;0.70;;
53299;SDS011;39187;48.476;8.310;2022-11-15T10:25:20;0.70;;;0.70;;
53299;SDS011;39187;48.476;8.310;2022-11-15T10:30:44;0.77;;;0.70;;
53299;SDS011;39187;48.476;8.310;2022-11-15T10:33:15;0.73;;;0.73;;
53299;SDS011;39187;48.476;8.310;2022-11-15T10:36:17;0.73;;;0.73;;
53299;SDS011;39187;48.476;8.310;2022-11-15T10:41:16;0.80;;;0.80;;
53299;SDS011;39187;48.476;8.310;2022-11-15T10:43:43;0.80;;;0.80;;
53299;SDS011;39187;48.476;8.310;2022-11-15T10:46:19;1.13;;;1.10;;
53299;SDS011;39187;48.476;8.310;2022-11-15T10:48:47;0.97;;;0.87;;
53299;SDS011;39187;48.476;8.310;2022-11-15T10:51:20;1.07;;;1.07;;
53299;SDS011;39187;48.476;8.310;2022-11-15T10:53:54;0.90;;;0.90;;
53299;SDS011;39187;48.476;8.310;2022-11-15T10:56:24;0.93;;;0.93;;
53299;SDS011;39187;48.476;8.310;2022-11-15T10:58:55;0.70;;;0.70;;
53299;SDS011;39187;48.476;8.310;2022-11-15T11:01:23;1.10;;;1.10;;
53299;SDS011;39187;48.476;8.310;2022-11-15T11:04:06;0.90;;;0.90;;
53299;SDS011;39187;48.476;8.310;2022-11-15T11:09:49;0.70;;;0.70;;
53299;SDS011;39187;48.476;8.310;2022-11-15T11:12:09;1.00;;;1.00;;
53299;SDS011;39187;48.476;8.310;2022-11-15T11:14:37;1.37;;;1.23;;
53299;SDS011;39187;48.476;8.310;2022-11-15T11:25:54;1.20;;;1.10;;
53299;SDS011;39187;48.476;8.310;2022-11-15T11:28:42;1.30;;;1.20;;
53299;SDS011;39187;48.476;8.310;2022-11-15T11:31:15;1.43;;;0.90;;
53299;SDS011;39187;48.476;8.310;2022-11-15T11:44:48;1.30;;;1.20;;
53299;SDS011;39187;48.476;8.310;2022-11-15T11:47:39;0.87;;;0.87;;
53299;SDS011;39187;48.476;8.310;2022-11-15T11:50:17;1.20;;;1.10;;
53299;SDS011;39187;48.476;8.310;2022-11-15T11:55:47;3.73;;;0.97;;
53299;SDS011;39187;48.476;8.310;2022-11-15T12:11:51;0.73;;;0.73;;
53299;SDS011;39187;48.476;8.310;2022-11-15T12:14:28;0.77;;;0.77;;
53299;SDS011;39187;48.476;8.310;2022-11-15T12:16:59;0.80;;;0.80;;
53299;SDS011;39187;48.476;8.310;2022-11-15T12:19:25;0.80;;;0.80;;
53299;SDS011;39187;48.476;8.310;2022-11-15T12:21:57;1.30;;;1.20;;
53299;SDS011;39187;48.476;8.310;2022-11-15T12:24:40;0.93;;;0.93;;
53299;SDS011;39187;48.476;8.310;2022-11-15T12:29:43;0.80;;;0.80;;
53299;SDS011;39187;48.476;8.310;2022-11-15T12:32:33;0.93;;;0.90;;
53299;SDS011;39187;48.476;8.310;2022-11-15T12:35:01;1.27;;;1.17;;
53299;SDS011;39187;48.476;8.310;2022-11-15T12:43:02;1.50;;;1.40;;
53299;SDS011;39187;48.476;8.310;2022-11-15T12:45:41;1.37;;;1.10;;
53299;SDS011;39187;48.476;8.310;2022-11-15T12:58:45;0.70;;;0.70;;
53299;SDS011;39187;48.476;8.310;2022-11-15T13:04:13;0.90;;;0.90;;
53299;SDS011;39187;48.476;8.310;2022-11-15T13:06:43;10.87;;;0.93;;
53299;SDS011;39187;48.476;8.310;2022-11-15T13:11:58;0.80;;;0.80;;
53299;SDS011;39187;48.476;8.310;2022-11-15T13:20:11;1.00;;;1.00;;
53299;SDS011;39187;48.476;8.310;2022-11-15T13:22:39;1.63;;;1.53;;
53299;SDS011;39187;48.476;8.310;2022-11-15T13:28:02;0.80;;;0.80;;
53299;SDS011;39187;48.476;8.310;2022-11-15T13:30:36;1.57;;;1.00;;
53299;SDS011;39187;48.476;8.310;2022-11-15T13:35:48;1.00;;;1.00;;
53299;SDS011;39187;48.476;8.310;2022-11-15T13:40:49;1.00;;;1.00;;
53299;SDS011;39187;48.476;8.310;2022-11-15T13:46:32;3.07;;;0.90;;
53299;SDS011;39187;48.476;8.310;2022-11-15T13:48:52;0.90;;;0.80;;
53299;SDS011;39187;48.476;8.310;2022-11-15T13:54:26;1.10;;;1.10;;
53299;SDS011;39187;48.476;8.310;2022-11-15T13:57:00;1.30;;;1.20;;
53299;SDS011;39187;48.476;8.310;2022-11-15T14:02:12;0.80;;;0.80;;
53299;SDS011;39187;48.476;8.310;2022-11-15T14:04:55;1.47;;;1.03;;
53299;SDS011;39187;48.476;8.310;2022-11-15T14:07:25;1.57;;;1.00;;
53299;SDS011;39187;48.476;8.310;2022-11-15T14:09:52;1.73;;;1.00;;
53299;SDS011;39187;48.476;8.310;2022-11-15T14:14:52;2.97;;;0.80;;
53299;SDS011;39187;48.476;8.310;2022-11-15T14:17:32;1.07;;;1.07;;
53299;SDS011;39187;48.476;8.310;2022-11-15T14:19:59;1.07;;;1.07;;
53299;SDS011;39187;48.476;8.310;2022-11-15T14:22:26;2.90;;;1.10;;
53299;SDS011;39187;48.476;8.310;2022-11-15T14:28:07;1.20;;;1.20;;
53299;SDS011;39187;48.476;8.310;2022-11-15T14:30:39;1.00;;;1.00;;
53299;SDS011;39187;48.476;8.310;2022-11-15T14:33:17;1.50;;;0.97;;
53299;SDS011;39187;48.476;8.310;2022-11-15T14:35:43;1.20;;;1.20;;
53299;SDS011;39187;48.476;8.310;2022-11-15T14:38:09;0.90;;;0.90;;
53299;SDS011;39187;48.476;8.310;2022-11-15T14:40:35;1.07;;;1.07;;
53299;SDS011;39187;48.476;8.310;2022-11-15T14:43:00;1.10;;;1.10;;
53299;SDS011;39187;48.476;8.310;2022-11-15T14:45:26;2.40;;;0.93;;
53299;SDS011;39187;48.476;8.310;2022-11-15T14:47:52;1.07;;;0.97;;
53299;SDS011;39187;48.476;8.310;2022-11-15T14:50:19;0.90;;;0.90;;
53299;SDS011;39187;48.476;8.310;2022-11-15T14:52:46;1.60;;;1.30;;
53299;SDS011;39187;48.476;8.310;2022-11-15T14:55:20;0.90;;;0.90;;
53299;SDS011;39187;48.476;8.310;2022-11-15T14:57:49;1.20;;;1.20;;
53299;SDS011;39187;48.476;8.310;2022-11-15T15:00:15;1.20;;;1.10;;
53299;SDS011;39187;48.476;8.310;2022-11-15T15:02:42;1.17;;;1.17;;
53299;SDS011;39187;48.476;8.310;2022-11-15T15:05:22;2.87;;;2.77;;
53299;SDS011;39187;48.476;8.310;2022-11-15T15:07:59;8.53;;;7.40;;
53299;SDS011;39187;48.476;8.310;2022-11-15T15:10:25;10.43;;;8.10;;
53299;SDS011;39187;48.476;8.310;2022-11-15T15:13:00;1.60;;;1.50;;
53299;SDS011;39187;48.476;8.310;2022-11-15T15:15:36;16.20;;;11.53;;
53299;SDS011;39187;48.476;8.310;2022-11-15T15:18:03;3.53;;;3.23;;
53299;SDS011;39187;48.476;8.310;2022-11-15T15:20:32;8.93;;;8.10;;
53299;SDS011;39187;48.476;8.310;2022-11-15T15:22:58;2.20;;;2.10;;
53299;SDS011;39187;48.476;8.310;2022-11-15T15:25:30;3.60;;;3.40;;
53299;SDS011;39187;48.476;8.310;2022-11-15T15:27:58;2.27;;;2.17;;
53299;SDS011;39187;48.476;8.310;2022-11-15T15:30:25;3.97;;;3.60;;
53299;SDS011;39187;48.476;8.310;2022-11-15T15:32:51;7.30;;;6.70;;
53299;SDS011;39187;48.476;8.310;2022-11-15T15:35:18;2.30;;;2.20;;
53299;SDS011;39187;48.476;8.310;2022-11-15T15:37:44;1.47;;;1.30;;
53299;SDS011;39187;48.476;8.310;2022-11-15T15:40:15;1.70;;;1.60;;
53299;SDS011;39187;48.476;8.310;2022-11-15T15:42:43;1.90;;;1.80;;
53299;SDS011;39187;48.476;8.310;2022-11-15T15:45:08;1.70;;;1.60;;
53299;SDS011;39187;48.476;8.310;2022-11-15T15:47:34;4.47;;;4.20;;
53299;SDS011;39187;48.476;8.310;2022-11-15T15:50:00;3.30;;;2.33;;
53299;SDS011;39187;48.476;8.310;2022-11-15T15:52:26;5.07;;;3.40;;
53299;SDS011;39187;48.476;8.310;2022-11-15T15:54:51;4.43;;;2.93;;
53299;SDS011;39187;48.476;8.310;2022-11-15T15:57:17;2.60;;;2.50;;
53299;SDS011;39187;48.476;8.310;2022-11-15T15:59:43;4.50;;;4.00;;
53299;SDS011;39187;48.476;8.310;2022-11-15T16:02:12;3.20;;;2.83;;
53299;SDS011;39187;48.476;8.310;2022-11-15T16:04:39;3.87;;;3.67;;
53299;SDS011;39187;48.476;8.310;2022-11-15T16:07:05;4.57;;;4.20;;
53299;SDS011;39187;48.476;8.310;2022-11-15T16:09:31;3.93;;;3.73;;
53299;SDS011;39187;48.476;8.310;2022-11-15T16:12:15;4.13;;;3.83;;
53299;SDS011;39187;48.476;8.310;2022-11-15T16:14:41;19.27;;;17.17;;
53299;SDS011;39187;48.476;8.310;2022-11-15T16:17:15;20.03;;;17.40;;
53299;SDS011;39187;48.476;8.310;2022-11-15T16:19:43;15.17;;;13.90;;
53299;SDS011;39187;48.476;8.310;2022-11-15T16:22:09;6.30;;;5.60;;
53299;SDS011;39187;48.476;8.310;2022-11-15T16:24:34;13.90;;;12.57;;
53299;SDS011;39187;48.476;8.310;2022-11-15T16:27:00;9.80;;;8.90;;
53299;SDS011;39187;48.476;8.310;2022-11-15T16:29:26;3.90;;;3.63;;
53299;SDS011;39187;48.476;8.310;2022-11-15T16:31:52;5.40;;;5.10;;
53299;SDS011;39187;48.476;8.310;2022-11-15T16:34:17;3.93;;;3.83;;
53299;SDS011;39187;48.476;8.310;2022-11-15T16:36:43;4.40;;;4.10;;
53299;SDS011;39187;48.476;8.310;2022-11-15T16:39:12;3.70;;;3.50;;
53299;SDS011;39187;48.476;8.310;2022-11-15T16:41:43;4.00;;;3.80;;
53299;SDS011;39187;48.476;8.310;2022-11-15T16:44:14;2.60;;;2.40;;
53299;SDS011;39187;48.476;8.310;2022-11-15T16:46:40;3.47;;;3.17;;
53299;SDS011;39187;48.476;8.310;2022-11-15T16:49:13;3.20;;;3.00;;
53299;SDS011;39187;48.476;8.310;2022-11-15T16:51:40;2.67;;;2.57;;
53299;SDS011;39187;48.476;8.310;2022-11-15T16:54:06;2.70;;;2.60;;
53299;SDS011;39187;48.476;8.310;2022-11-15T16:56:32;2.90;;;2.70;;
53299;SDS011;39187;48.476;8.310;2022-11-15T16:58:59;3.27;;;3.07;;
53299;SDS011;39187;48.476;8.310;2022-11-15T17:01:26;2.73;;;2.63;;
53299;SDS011;39187;48.476;8.310;2022-11-15T17:03:54;3.10;;;3.00;;
53299;SDS011;39187;48.476;8.310;2022-11-15T17:06:20;7.40;;;2.83;;
53299;SDS011;39187;48.476;8.310;2022-11-15T17:08:47;3.00;;;2.80;;
53299;SDS011;39187;48.476;8.310;2022-11-15T17:11:14;2.93;;;2.73;;
53299;SDS011;39187;48.476;8.310;2022-11-15T17:13:41;3.50;;;3.20;;
53299;SDS011;39187;48.476;8.310;2022-11-15T17:16:11;12.07;;;10.93;;
53299;SDS011;39187;48.476;8.310;2022-11-15T17:18:38;18.70;;;14.97;;
53299;SDS011;39187;48.476;8.310;2022-11-15T17:21:21;9.50;;;8.80;;
53299;SDS011;39187;48.476;8.310;2022-11-15T17:23:47;3.30;;;3.10;;